sensor_id;sensor_type;location;lat;lon;timestamp;pressure;altitude;pressure_sealevel;temperature;humidity
13732;BME280;6937;56.096;12.664;2024-03-23T00:55:03;100540.53;;;5.28;100.00
13732;BME280;6937;56.096;12.664;2024-03-23T00:57:29;100546.78;;;5.27;100.00
13732;BME280;6937;56.096;12.664;2024-03-23T00:59:54;100537.19;;;5.25;100.00
13732;BME280;6937;56.096;12.664;2024-03-23T01:02:19;100545.13;;;5.25;100.00
13732;BME280;6937;56.096;12.664;2024-03-23T01:04:45;100542.56;;;5.23;100.00
13732;BME280;6937;56.096;12.664;2024-03-23T01:07:11;100544.53;;;5.20;100.00
13732;BME280;6937;56.096;12.664;2024-03-23T01:09:36;100543.50;;;5.22;100.00
13732;BME280;6937;56.096;12.664;2024-03-23T01:12:04;100527.72;;;5.21;100.00
13732;BME280;6937;56.096;12.664;2024-03-23T01:14:29;100530.44;;;5.19;100.00
13732;BME280;6937;56.096;12.664;2024-03-23T01:16:55;100537.63;;;5.17;100.00
13732;BME280;6937;56.096;12.664;2024-03-23T01:19:20;100531.47;;;5.17;100.00
13732;BME280;6937;56.096;12.664;2024-03-23T01:21:45;100532.31;;;5.17;100.00
13732;BME280;6937;56.096;12.664;2024-03-23T01:24:11;100534.19;;;5.15;100.00
13732;BME280;6937;56.096;12.664;2024-03-23T01:26:36;100523.06;;;5.09;100.00
13732;BME280;6937;56.096;12.664;2024-03-23T01:29:03;100518.75;;;5.06;100.00
13732;BME280;6937;56.096;12.664;2024-03-23T01:31:28;100515.34;;;5.04;100.00
13732;BME280;6937;56.096;12.664;2024-03-23T01:33:53;100517.06;;;5.05;100.00
13732;BME280;6937;56.096;12.664;2024-03-23T01:36:19;100505.69;;;5.03;100.00
13732;BME280;6937;56.096;12.664;2024-03-23T01:38:44;100505.69;;;5.03;100.00
13732;BME280;6937;56.096;12.664;2024-03-23T01:41:10;100500.75;;;4.97;100.00
13732;BME280;6937;56.096;12.664;2024-03-23T01:43:35;100507.75;;;4.98;100.00
13732;BME280;6937;56.096;12.664;2024-03-23T01:46:00;100506.09;;;4.96;100.00
13732;BME280;6937;56.096;12.664;2024-03-23T01:48:26;100492.00;;;4.95;100.00
13732;BME280;6937;56.096;12.664;2024-03-23T01:50:51;100491.25;;;4.93;100.00
13732;BME280;6937;56.096;12.664;2024-03-23T01:53:17;100488.16;;;4.85;100.00
13732;BME280;6937;56.096;12.664;2024-03-23T01:55:44;100487.63;;;4.78;100.00
13732;BME280;6937;56.096;12.664;2024-03-23T01:58:10;100493.16;;;4.74;100.00
13732;BME280;6937;56.096;12.664;2024-03-23T02:00:35;100483.66;;;4.70;100.00
13732;BME280;6937;56.096;12.664;2024-03-23T02:03:01;100479.47;;;4.66;100.00
13732;BME280;6937;56.096;12.664;2024-03-23T02:05:26;100485.94;;;4.60;100.00
13732;BME280;6937;56.096;12.664;2024-03-23T02:07:52;100491.31;;;4.59;100.00
13732;BME280;6937;56.096;12.664;2024-03-23T02:10:17;100486.19;;;4.56;100.00
13732;BME280;6937;56.096;12.664;2024-03-23T02:12:43;100482.75;;;4.54;100.00
13732;BME280;6937;56.096;12.664;2024-03-23T02:15:08;100481.97;;;4.52;100.00
13732;BME280;6937;56.096;12.664;2024-03-23T02:17:35;100477.63;;;4.51;100.00
13732;BME280;6937;56.096;12.664;2024-03-23T02:20:01;100487.44;;;4.49;100.00
13732;BME280;6937;56.096;12.664;2024-03-23T02:22:39;100483.31;;;4.43;100.00
13732;BME280;6937;56.096;12.664;2024-03-23T02:25:05;100490.31;;;4.44;100.00
13732;BME280;6937;56.096;12.664;2024-03-23T02:27:31;100491.25;;;4.43;100.00
13732;BME280;6937;56.096;12.664;2024-03-23T02:29:57;100491.25;;;4.43;100.00
13732;BME280;6937;56.096;12.664;2024-03-23T02:32:22;100484.31;;;4.41;100.00
13732;BME280;6937;56.096;12.664;2024-03-23T02:34:48;100488.75;;;4.40;100.00
13732;BME280;6937;56.096;12.664;2024-03-23T02:37:13;100478.34;;;4.37;100.00
13732;BME280;6937;56.096;12.664;2024-03-23T02:39:38;100477.72;;;4.32;100.00
13732;BME280;6937;56.096;12.664;2024-03-23T02:42:04;100476.94;;;4.30;100.00
13732;BME280;6937;56.096;12.664;2024-03-23T02:44:29;100476.25;;;4.26;100.00
13732;BME280;6937;56.096;12.664;2024-03-23T02:46:54;100473.78;;;4.23;100.00
13732;BME280;6937;56.096;12.664;2024-03-23T02:49:20;100473.84;;;4.22;100.00
13732;BME280;6937;56.096;12.664;2024-03-23T02:51:46;100472.28;;;4.18;100.00
13732;BME280;6937;56.096;12.664;2024-03-23T02:54:13;100479.34;;;4.17;100.00
13732;BME280;6937;56.096;12.664;2024-03-23T02:56:39;100475.84;;;4.17;100.00
13732;BME280;6937;56.096;12.664;2024-03-23T02:59:04;100469.69;;;4.16;100.00
13732;BME280;6937;56.096;12.664;2024-03-23T03:01:29;100469.56;;;4.19;100.00
13732;BME280;6937;56.096;12.664;2024-03-23T03:03:55;100465.97;;;4.20;100.00
13732;BME280;6937;56.096;12.664;2024-03-23T03:06:24;100462.38;;;4.21;100.00
13732;BME280;6937;56.096;12.664;2024-03-23T03:08:50;100467.78;;;4.20;100.00
13732;BME280;6937;56.096;12.664;2024-03-23T03:11:15;100459.97;;;4.17;100.00
13732;BME280;6937;56.096;12.664;2024-03-23T03:13:41;100459.28;;;4.13;100.00
13732;BME280;6937;56.096;12.664;2024-03-23T03:16:09;100462.72;;;4.15;100.00
13732;BME280;6937;56.096;12.664;2024-03-23T03:18:35;100458.34;;;4.14;100.00
13732;BME280;6937;56.096;12.664;2024-03-23T03:21:00;100456.72;;;4.12;100.00
13732;BME280;6937;56.096;12.664;2024-03-23T03:23:26;100457.88;;;4.06;100.00
13732;BME280;6937;56.096;12.664;2024-03-23T03:25:51;100453.69;;;4.02;100.00
13732;BME280;6937;56.096;12.664;2024-03-23T03:28:16;100456.25;;;4.04;100.00
13732;BME280;6937;56.096;12.664;2024-03-23T03:30:42;100451.91;;;4.03;100.00
13732;BME280;6937;56.096;12.664;2024-03-23T03:33:07;100448.38;;;4.02;100.00
13732;BME280;6937;56.096;12.664;2024-03-23T03:35:32;100440.78;;;3.96;100.00
13732;BME280;6937;56.096;12.664;2024-03-23T03:37:58;100433.00;;;3.93;100.00
13732;BME280;6937;56.096;12.664;2024-03-23T03:40:23;100434.78;;;3.93;100.00
13732;BME280;6937;56.096;12.664;2024-03-23T03:42:49;100433.94;;;3.92;100.00
13732;BME280;6937;56.096;12.664;2024-03-23T03:45:15;100431.28;;;3.92;100.00
13732;BME280;6937;56.096;12.664;2024-03-23T03:47:40;100438.34;;;3.92;100.00
13732;BME280;6937;56.096;12.664;2024-03-23T03:50:06;100430.66;;;3.87;100.00
13732;BME280;6937;56.096;12.664;2024-03-23T03:52:31;100434.09;;;3.89;100.00
13732;BME280;6937;56.096;12.664;2024-03-23T03:55:01;100430.50;;;3.90;100.00
13732;BME280;6937;56.096;12.664;2024-03-23T03:57:30;100423.53;;;3.89;100.00
13732;BME280;6937;56.096;12.664;2024-03-23T03:59:56;100420.03;;;3.88;100.00
13732;BME280;6937;56.096;12.664;2024-03-23T04:02:21;100423.59;;;3.87;100.00
13732;BME280;6937;56.096;12.664;2024-03-23T04:04:46;100422.72;;;3.87;100.00
13732;BME280;6937;56.096;12.664;2024-03-23T04:07:12;100422.72;;;3.87;100.00
13732;BME280;6937;56.096;12.664;2024-03-23T04:09:37;100418.41;;;3.86;100.00
13732;BME280;6937;56.096;12.664;2024-03-23T04:12:03;100417.59;;;3.84;100.00
13732;BME280;6937;56.096;12.664;2024-03-23T04:14:28;100419.47;;;3.82;100.00
13732;BME280;6937;56.096;12.664;2024-03-23T04:16:53;100419.31;;;3.85;100.00
13732;BME280;6937;56.096;12.664;2024-03-23T04:19:20;100419.38;;;3.83;100.00
13732;BME280;6937;56.096;12.664;2024-03-23T04:21:45;100420.31;;;3.82;100.00
13732;BME280;6937;56.096;12.664;2024-03-23T04:24:11;100424.66;;;3.83;100.00
13732;BME280;6937;56.096;12.664;2024-03-23T04:26:43;100415.03;;;3.82;100.00
13732;BME280;6937;56.096;12.664;2024-03-23T04:29:08;100415.97;;;3.81;100.00
13732;BME280;6937;56.096;12.664;2024-03-23T04:31:33;100413.50;;;3.78;100.00
13732;BME280;6937;56.096;12.664;2024-03-23T04:34:03;100414.25;;;3.80;100.00
13732;BME280;6937;56.096;12.664;2024-03-23T04:36:28;100410.00;;;3.78;100.00
13732;BME280;6937;56.096;12.664;2024-03-23T04:38:54;100408.28;;;3.77;100.00
13732;BME280;6937;56.096;12.664;2024-03-23T04:41:19;100416.19;;;3.77;100.00
13732;BME280;6937;56.096;12.664;2024-03-23T04:43:44;100419.69;;;3.77;100.00
13732;BME280;6937;56.096;12.664;2024-03-23T04:46:10;100413.72;;;3.74;100.00
13732;BME280;6937;56.096;12.664;2024-03-23T04:48:35;100415.50;;;3.73;100.00
13732;BME280;6937;56.096;12.664;2024-03-23T04:51:01;100422.41;;;3.76;100.00
13732;BME280;6937;56.096;12.664;2024-03-23T04:53:26;100426.72;;;3.78;100.00
13732;BME280;6937;56.096;12.664;2024-03-23T04:55:58;100431.13;;;3.78;100.00
13732;BME280;6937;56.096;12.664;2024-03-23T04:58:24;100434.63;;;3.78;100.00
13732;BME280;6937;56.096;12.664;2024-03-23T05:00:56;100432.13;;;3.75;100.00
13732;BME280;6937;56.096;12.664;2024-03-23T05:03:22;100433.78;;;3.78;100.00
13732;BME280;6937;56.096;12.664;2024-03-23T05:05:48;100432.06;;;3.77;100.00
13732;BME280;6937;56.096;12.664;2024-03-23T05:08:14;100432.13;;;3.75;100.00
13732;BME280;6937;56.096;12.664;2024-03-23T05:10:41;100426.06;;;3.73;100.00
13732;BME280;6937;56.096;12.664;2024-03-23T05:13:07;100427.69;;;3.76;100.00
13732;BME280;6937;56.096;12.664;2024-03-23T05:15:32;100430.34;;;3.76;100.00
13732;BME280;6937;56.096;12.664;2024-03-23T05:17:58;100441.84;;;3.75;100.00
13732;BME280;6937;56.096;12.664;2024-03-23T05:20:23;100429.34;;;3.78;100.00
13732;BME280;6937;56.096;12.664;2024-03-23T05:22:49;100419.84;;;3.74;100.00
13732;BME280;6937;56.096;12.664;2024-03-23T05:25:16;100422.34;;;3.77;100.00
13732;BME280;6937;56.096;12.664;2024-03-23T05:27:41;100430.28;;;3.77;100.00
13732;BME280;6937;56.096;12.664;2024-03-23T05:30:07;100417.97;;;3.76;100.00
13732;BME280;6937;56.096;12.664;2024-03-23T05:32:34;100420.47;;;3.79;100.00
13732;BME280;6937;56.096;12.664;2024-03-23T05:34:59;100428.34;;;3.81;100.00
13732;BME280;6937;56.096;12.664;2024-03-23T05:37:25;100434.47;;;3.81;100.00
13732;BME280;6937;56.096;12.664;2024-03-23T05:39:51;100422.13;;;3.82;100.00
13732;BME280;6937;56.096;12.664;2024-03-23T05:42:17;100429.94;;;3.83;100.00
13732;BME280;6937;56.096;12.664;2024-03-23T05:44:45;100432.59;;;3.83;100.00
13732;BME280;6937;56.096;12.664;2024-03-23T05:47:11;100424.75;;;3.82;100.00
13732;BME280;6937;56.096;12.664;2024-03-23T05:49:37;100429.03;;;3.84;100.00
13732;BME280;6937;56.096;12.664;2024-03-23T05:52:03;100434.25;;;3.86;100.00
13732;BME280;6937;56.096;12.664;2024-03-23T05:54:29;100437.72;;;3.86;100.00
13732;BME280;6937;56.096;12.664;2024-03-23T05:56:55;100431.50;;;3.87;100.00
13732;BME280;6937;56.096;12.664;2024-03-23T05:59:20;100437.50;;;3.91;100.00
13732;BME280;6937;56.096;12.664;2024-03-23T06:01:47;100432.22;;;3.91;100.00
13732;BME280;6937;56.096;12.664;2024-03-23T06:04:12;100429.41;;;3.94;100.00
13732;BME280;6937;56.096;12.664;2024-03-23T06:06:39;100432.69;;;3.99;100.00
13732;BME280;6937;56.096;12.664;2024-03-23T06:09:04;100437.66;;;4.05;100.00
13732;BME280;6937;56.096;12.664;2024-03-23T06:11:30;100439.47;;;4.05;100.00
13732;BME280;6937;56.096;12.664;2024-03-23T06:13:56;100439.31;;;4.08;100.00
13732;BME280;6937;56.096;12.664;2024-03-23T06:16:21;100440.00;;;4.11;100.00
13732;BME280;6937;56.096;12.664;2024-03-23T06:18:53;100448.69;;;4.13;100.00
13732;BME280;6937;56.096;12.664;2024-03-23T06:21:19;100440.69;;;4.15;100.00
13732;BME280;6937;56.096;12.664;2024-03-23T06:23:45;100451.19;;;4.16;100.00
13732;BME280;6937;56.096;12.664;2024-03-23T06:26:20;100433.47;;;4.18;100.00
13732;BME280;6937;56.096;12.664;2024-03-23T06:28:46;100432.59;;;4.18;100.00
13732;BME280;6937;56.096;12.664;2024-03-23T06:31:12;100436.03;;;4.20;100.00
13732;BME280;6937;56.096;12.664;2024-03-23T06:33:37;100436.88;;;4.20;100.00
13732;BME280;6937;56.096;12.664;2024-03-23T06:36:06;100432.38;;;4.22;100.00
13732;BME280;6937;56.096;12.664;2024-03-23T06:38:33;100435.56;;;4.29;100.00
13732;BME280;6937;56.096;12.664;2024-03-23T06:41:02;100431.97;;;4.30;100.00
13732;BME280;6937;56.096;12.664;2024-03-23T06:43:27;100431.06;;;4.31;100.00
13732;BME280;6937;56.096;12.664;2024-03-23T06:45:53;100423.81;;;4.34;100.00
13732;BME280;6937;56.096;12.664;2024-03-23T06:48:19;100428.94;;;4.37;100.00
13732;BME280;6937;56.096;12.664;2024-03-23T06:50:45;100428.78;;;4.41;100.00
13732;BME280;6937;56.096;12.664;2024-03-23T06:53:12;100427.59;;;4.46;100.00
13732;BME280;6937;56.096;12.664;2024-03-23T06:55:37;100432.81;;;4.48;100.00
13732;BME280;6937;56.096;12.664;2024-03-23T06:58:02;100444.75;;;4.55;100.00
13732;BME280;6937;56.096;12.664;2024-03-23T07:00:29;100427.09;;;4.55;100.00
13732;BME280;6937;56.096;12.664;2024-03-23T07:02:54;100431.31;;;4.59;100.00
13732;BME280;6937;56.096;12.664;2024-03-23T07:05:20;100429.50;;;4.60;100.00
13732;BME280;6937;56.096;12.664;2024-03-23T07:07:45;100448.50;;;4.68;100.00
13732;BME280;6937;56.096;12.664;2024-03-23T07:10:10;100451.81;;;4.71;100.00
13732;BME280;6937;56.096;12.664;2024-03-23T07:12:36;100452.53;;;4.75;100.00
13732;BME280;6937;56.096;12.664;2024-03-23T07:15:01;100443.66;;;4.76;100.00
13732;BME280;6937;56.096;12.664;2024-03-23T07:17:26;100445.34;;;4.77;100.00
13732;BME280;6937;56.096;12.664;2024-03-23T07:19:52;100449.28;;;4.85;100.00
13732;BME280;6937;56.096;12.664;2024-03-23T07:22:17;100461.66;;;4.85;100.00
13732;BME280;6937;56.096;12.664;2024-03-23T07:24:43;100438.63;;;4.87;100.00
13732;BME280;6937;56.096;12.664;2024-03-23T07:27:09;100441.09;;;4.90;100.00
13732;BME280;6937;56.096;12.664;2024-03-23T07:29:35;100443.41;;;4.96;100.00
13732;BME280;6937;56.096;12.664;2024-03-23T07:32:01;100431.53;;;5.03;100.00
13732;BME280;6937;56.096;12.664;2024-03-23T07:34:27;100428.56;;;5.09;100.00
13732;BME280;6937;56.096;12.664;2024-03-23T07:36:52;100427.19;;;5.18;100.00
13732;BME280;6937;56.096;12.664;2024-03-23T07:39:17;100424.03;;;5.27;100.00
13732;BME280;6937;56.096;12.664;2024-03-23T07:41:46;100420.97;;;5.34;100.00
13732;BME280;6937;56.096;12.664;2024-03-23T07:44:11;100422.25;;;5.43;100.00
13732;BME280;6937;56.096;12.664;2024-03-23T07:46:38;100418.06;;;5.55;100.00
13732;BME280;6937;56.096;12.664;2024-03-23T07:49:06;100410.84;;;5.57;100.00
13732;BME280;6937;56.096;12.664;2024-03-23T07:51:32;100418.19;;;5.52;100.00
13732;BME280;6937;56.096;12.664;2024-03-23T07:53:58;100404.19;;;5.50;100.00
13732;BME280;6937;56.096;12.664;2024-03-23T07:56:23;100390.84;;;5.51;100.00
13732;BME280;6937;56.096;12.664;2024-03-23T07:58:49;100395.69;;;5.59;100.00
13732;BME280;6937;56.096;12.664;2024-03-23T08:01:16;100386.28;;;5.69;100.00
13732;BME280;6937;56.096;12.664;2024-03-23T08:03:43;100387.16;;;5.69;100.00
13732;BME280;6937;56.096;12.664;2024-03-23T08:06:11;100373.78;;;5.71;100.00
13732;BME280;6937;56.096;12.664;2024-03-23T08:08:36;100373.59;;;5.74;100.00
13732;BME280;6937;56.096;12.664;2024-03-23T08:11:02;100368.88;;;5.79;100.00
13732;BME280;6937;56.096;12.664;2024-03-23T08:13:28;100366.84;;;5.84;100.00
13732;BME280;6937;56.096;12.664;2024-03-23T08:16:01;100361.25;;;5.89;100.00
13732;BME280;6937;56.096;12.664;2024-03-23T08:18:27;100353.47;;;5.85;100.00
13732;BME280;6937;56.096;12.664;2024-03-23T08:21:03;100350.19;;;5.96;100.00
13732;BME280;6937;56.096;12.664;2024-03-23T08:23:30;100345.28;;;6.04;100.00
13732;BME280;6937;56.096;12.664;2024-03-23T08:26:03;100343.22;;;6.09;100.00
13732;BME280;6937;56.096;12.664;2024-03-23T08:28:29;100344.47;;;6.18;100.00
13732;BME280;6937;56.096;12.664;2024-03-23T08:30:55;100339.63;;;6.24;100.00
13732;BME280;6937;56.096;12.664;2024-03-23T08:33:21;100332.25;;;6.29;100.00
13732;BME280;6937;56.096;12.664;2024-03-23T08:35:57;100321.25;;;6.21;100.00
13732;BME280;6937;56.096;12.664;2024-03-23T08:38:24;100328.16;;;6.24;100.00
13732;BME280;6937;56.096;12.664;2024-03-23T08:40:57;100322.84;;;6.24;100.00
13732;BME280;6937;56.096;12.664;2024-03-23T08:43:23;100318.88;;;6.31;100.00
13732;BME280;6937;56.096;12.664;2024-03-23T08:45:48;100320.59;;;6.32;100.00
13732;BME280;6937;56.096;12.664;2024-03-23T08:48:14;100303.81;;;6.31;100.00
13732;BME280;6937;56.096;12.664;2024-03-23T08:50:39;100310.72;;;6.34;100.00
13732;BME280;6937;56.096;12.664;2024-03-23T08:53:04;100300.03;;;6.36;100.00
13732;BME280;6937;56.096;12.664;2024-03-23T08:55:30;100289.31;;;6.37;100.00
13732;BME280;6937;56.096;12.664;2024-03-23T08:57:55;100290.44;;;6.47;100.00
13732;BME280;6937;56.096;12.664;2024-03-23T09:00:21;100290.31;;;6.49;100.00
13732;BME280;6937;56.096;12.664;2024-03-23T09:02:50;100276.72;;;6.41;100.00
13732;BME280;6937;56.096;12.664;2024-03-23T09:05:15;100284.69;;;6.41;100.00
13732;BME280;6937;56.096;12.664;2024-03-23T09:07:40;100279.44;;;6.39;100.00
13732;BME280;6937;56.096;12.664;2024-03-23T09:10:07;100264.38;;;6.40;100.00
13732;BME280;6937;56.096;12.664;2024-03-23T09:12:32;100263.53;;;6.39;100.00
13732;BME280;6937;56.096;12.664;2024-03-23T09:14:58;100269.28;;;6.46;100.00
13732;BME280;6937;56.096;12.664;2024-03-23T09:17:23;100258.19;;;6.53;100.00
13732;BME280;6937;56.096;12.664;2024-03-23T09:19:48;100262.16;;;6.60;100.00
13732;BME280;6937;56.096;12.664;2024-03-23T09:22:14;100268.13;;;6.64;100.00
13732;BME280;6937;56.096;12.664;2024-03-23T09:24:39;100256.56;;;6.65;100.00
13732;BME280;6937;56.096;12.664;2024-03-23T09:27:05;100259.88;;;6.68;100.00
13732;BME280;6937;56.096;12.664;2024-03-23T09:29:30;100253.69;;;6.68;100.00
13732;BME280;6937;56.096;12.664;2024-03-23T09:31:56;100248.28;;;6.69;100.00
13732;BME280;6937;56.096;12.664;2024-03-23T09:34:21;100240.78;;;6.76;100.00
13732;BME280;6937;56.096;12.664;2024-03-23T09:36:50;100230.72;;;6.81;100.00
13732;BME280;6937;56.096;12.664;2024-03-23T09:39:15;100237.41;;;6.87;100.00
13732;BME280;6937;56.096;12.664;2024-03-23T09:41:40;100227.56;;;6.89;100.00
13732;BME280;6937;56.096;12.664;2024-03-23T09:44:06;100223.47;;;6.97;100.00
13732;BME280;6937;56.096;12.664;2024-03-23T09:46:32;100225.06;;;7.00;100.00
13732;BME280;6937;56.096;12.664;2024-03-23T09:49:01;100212.00;;;7.09;100.00
13732;BME280;6937;56.096;12.664;2024-03-23T09:51:29;100213.28;;;7.16;100.00
13732;BME280;6937;56.096;12.664;2024-03-23T09:53:55;100203.53;;;7.29;100.00
13732;BME280;6937;56.096;12.664;2024-03-23T09:56:21;100182.72;;;7.49;100.00
13732;BME280;6937;56.096;12.664;2024-03-23T09:58:46;100184.66;;;7.72;100.00
13732;BME280;6937;56.096;12.664;2024-03-23T10:01:12;100184.09;;;7.92;100.00
13732;BME280;6937;56.096;12.664;2024-03-23T10:03:46;100162.56;;;8.08;100.00
13732;BME280;6937;56.096;12.664;2024-03-23T10:06:12;100169.91;;;8.17;100.00
13732;BME280;6937;56.096;12.664;2024-03-23T10:08:37;100152.19;;;8.29;100.00
13732;BME280;6937;56.096;12.664;2024-03-23T10:11:13;100153.41;;;8.48;100.00
13732;BME280;6937;56.096;12.664;2024-03-23T10:13:42;100147.91;;;8.62;100.00
13732;BME280;6937;56.096;12.664;2024-03-23T10:16:08;100137.06;;;8.65;100.00
13732;BME280;6937;56.096;12.664;2024-03-23T10:18:37;100127.13;;;8.67;100.00
13732;BME280;6937;56.096;12.664;2024-03-23T10:23:33;100148.00;;;8.50;100.00
13732;BME280;6937;56.096;12.664;2024-03-23T10:29:00;100142.31;;;8.18;100.00
13732;BME280;6937;56.096;12.664;2024-03-23T10:31:34;100149.09;;;7.98;100.00
13732;BME280;6937;56.096;12.664;2024-03-23T10:34:03;100149.84;;;7.75;100.00
13732;BME280;6937;56.096;12.664;2024-03-23T10:36:29;100150.59;;;7.52;100.00
13732;BME280;6937;56.096;12.664;2024-03-23T10:38:55;100147.63;;;7.44;100.00
13732;BME280;6937;56.096;12.664;2024-03-23T10:41:26;100154.22;;;7.38;100.00
13732;BME280;6937;56.096;12.664;2024-03-23T10:43:53;100144.84;;;7.33;100.00
13732;BME280;6937;56.096;12.664;2024-03-23T10:46:18;100143.16;;;7.44;100.00
13732;BME280;6937;56.096;12.664;2024-03-23T10:48:44;100143.78;;;7.48;100.00
13732;BME280;6937;56.096;12.664;2024-03-23T10:51:10;100127.63;;;7.63;100.00
13732;BME280;6937;56.096;12.664;2024-03-23T10:53:36;100131.00;;;7.78;100.00
13732;BME280;6937;56.096;12.664;2024-03-23T10:56:04;100132.28;;;7.85;100.00
13732;BME280;6937;56.096;12.664;2024-03-23T10:58:39;100126.94;;;7.98;100.00
13732;BME280;6937;56.096;12.664;2024-03-23T11:01:04;100125.13;;;7.98;100.00
13732;BME280;6937;56.096;12.664;2024-03-23T11:03:34;100123.19;;;8.00;100.00
13732;BME280;6937;56.096;12.664;2024-03-23T11:06:04;100124.78;;;8.03;100.00
13732;BME280;6937;56.096;12.664;2024-03-23T11:08:32;100123.28;;;7.99;100.00
13732;BME280;6937;56.096;12.664;2024-03-23T11:11:19;100110.75;;;8.01;100.00
13732;BME280;6937;56.096;12.664;2024-03-23T11:13:58;100118.19;;;8.08;100.00
13732;BME280;6937;56.096;12.664;2024-03-23T11:16:28;100113.44;;;8.24;100.00
13732;BME280;6937;56.096;12.664;2024-03-23T11:19:35;100117.69;;;8.27;100.00
13732;BME280;6937;56.096;12.664;2024-03-23T11:22:04;100131.94;;;8.26;100.00
13732;BME280;6937;56.096;12.664;2024-03-23T11:24:30;100129.00;;;8.31;100.00
13732;BME280;6937;56.096;12.664;2024-03-23T11:26:56;100133.50;;;8.54;100.00
13732;BME280;6937;56.096;12.664;2024-03-23T11:29:25;100127.75;;;8.71;100.00
13732;BME280;6937;56.096;12.664;2024-03-23T11:31:51;100130.91;;;8.76;100.00
13732;BME280;6937;56.096;12.664;2024-03-23T11:34:18;100130.50;;;8.93;100.00
13732;BME280;6937;56.096;12.664;2024-03-23T11:36:44;100128.41;;;9.20;100.00
13732;BME280;6937;56.096;12.664;2024-03-23T11:39:16;100112.78;;;9.38;100.00
13732;BME280;6937;56.096;12.664;2024-03-23T11:42:00;100113.19;;;9.56;100.00
13732;BME280;6937;56.096;12.664;2024-03-23T11:44:26;100107.34;;;9.62;100.00
13732;BME280;6937;56.096;12.664;2024-03-23T11:46:52;100095.72;;;9.63;100.00
13732;BME280;6937;56.096;12.664;2024-03-23T11:49:27;100092.06;;;9.53;100.00
13732;BME280;6937;56.096;12.664;2024-03-23T11:51:55;100106.88;;;9.57;100.00
13732;BME280;6937;56.096;12.664;2024-03-23T11:54:22;100104.81;;;9.71;100.00
13732;BME280;6937;56.096;12.664;2024-03-23T11:56:57;100098.16;;;9.77;100.00
13732;BME280;6937;56.096;12.664;2024-03-23T11:59:40;100109.06;;;9.85;100.00
13732;BME280;6937;56.096;12.664;2024-03-23T12:02:18;100116.69;;;9.90;100.00
13732;BME280;6937;56.096;12.664;2024-03-23T12:04:43;100108.69;;;9.79;100.00
13732;BME280;6937;56.096;12.664;2024-03-23T12:07:21;100105.91;;;9.69;100.00
13732;BME280;6937;56.096;12.664;2024-03-23T12:10:02;100106.63;;;9.71;100.00
13732;BME280;6937;56.096;12.664;2024-03-23T12:12:28;100104.94;;;9.70;100.00
13732;BME280;6937;56.096;12.664;2024-03-23T12:15:03;100086.97;;;9.61;100.00
13732;BME280;6937;56.096;12.664;2024-03-23T12:17:30;100103.34;;;9.45;100.00
13732;BME280;6937;56.096;12.664;2024-03-23T12:19:55;100126.00;;;9.40;100.00
13732;BME280;6937;56.096;12.664;2024-03-23T12:22:21;100108.53;;;9.25;100.00
13732;BME280;6937;56.096;12.664;2024-03-23T12:24:47;100112.88;;;9.14;100.00
13732;BME280;6937;56.096;12.664;2024-03-23T12:27:13;100125.47;;;9.12;100.00
13732;BME280;6937;56.096;12.664;2024-03-23T12:29:38;100120.84;;;9.03;100.00
13732;BME280;6937;56.096;12.664;2024-03-23T12:32:04;100123.72;;;9.00;100.00
13732;BME280;6937;56.096;12.664;2024-03-23T12:34:30;100118.91;;;9.05;100.00
13732;BME280;6937;56.096;12.664;2024-03-23T12:36:56;100110.63;;;8.97;100.00
13732;BME280;6937;56.096;12.664;2024-03-23T12:39:21;100122.88;;;9.00;100.00
13732;BME280;6937;56.096;12.664;2024-03-23T12:41:47;100095.78;;;9.06;100.00
13732;BME280;6937;56.096;12.664;2024-03-23T12:44:13;100102.06;;;9.05;100.00
13732;BME280;6937;56.096;12.664;2024-03-23T12:46:39;100097.09;;;9.11;100.00
13732;BME280;6937;56.096;12.664;2024-03-23T12:49:05;100099.41;;;9.16;100.00
13732;BME280;6937;56.096;12.664;2024-03-23T12:51:31;100099.63;;;9.02;100.00
13732;BME280;6937;56.096;12.664;2024-03-23T12:53:57;100101.38;;;8.79;100.00
13732;BME280;6937;56.096;12.664;2024-03-23T12:56:22;100107.47;;;8.57;100.00
13732;BME280;6937;56.096;12.664;2024-03-23T12:58:47;100105.03;;;8.31;100.00
13732;BME280;6937;56.096;12.664;2024-03-23T13:01:20;100102.59;;;8.15;100.00
13732;BME280;6937;56.096;12.664;2024-03-23T13:03:49;100097.13;;;8.05;100.00
13732;BME280;6937;56.096;12.664;2024-03-23T13:06:16;100109.75;;;8.14;100.00
13732;BME280;6937;56.096;12.664;2024-03-23T13:08:44;100096.28;;;8.29;100.00
13732;BME280;6937;56.096;12.664;2024-03-23T13:11:10;100091.59;;;8.56;100.00
13732;BME280;6937;56.096;12.664;2024-03-23T13:13:36;100098.34;;;8.72;100.00
13732;BME280;6937;56.096;12.664;2024-03-23T13:16:02;100081.81;;;8.91;100.00
13732;BME280;6937;56.096;12.664;2024-03-23T13:18:29;100087.25;;;9.01;100.00
13732;BME280;6937;56.096;12.664;2024-03-23T13:20:54;100091.28;;;9.06;100.00
13732;BME280;6937;56.096;12.664;2024-03-23T13:23:20;100115.75;;;9.11;100.00
13732;BME280;6937;56.096;12.664;2024-03-23T13:25:52;100107.03;;;9.09;100.00
13732;BME280;6937;56.096;12.664;2024-03-23T13:28:21;100116.84;;;9.09;100.00
13732;BME280;6937;56.096;12.664;2024-03-23T13:30:52;100112.03;;;9.14;100.00
13732;BME280;6937;56.096;12.664;2024-03-23T13:33:17;100118.34;;;9.24;100.00
13732;BME280;6937;56.096;12.664;2024-03-23T13:35:53;100113.53;;;9.29;100.00
13732;BME280;6937;56.096;12.664;2024-03-23T13:38:19;100137.38;;;9.31;100.00
13732;BME280;6937;56.096;12.664;2024-03-23T13:40:54;100120.50;;;9.19;100.00
13732;BME280;6937;56.096;12.664;2024-03-23T13:43:20;100133.47;;;9.12;100.00
13732;BME280;6937;56.096;12.664;2024-03-23T13:45:47;100133.19;;;9.04;100.00
13732;BME280;6937;56.096;12.664;2024-03-23T13:48:13;100166.16;;;9.03;100.00